createdAt,value
2022-12-14T00:01:35.716Z,92.23
2022-12-14T00:04:02.041Z,92.80
2022-12-14T00:06:29.820Z,92.75
2022-12-14T00:08:58.577Z,92.60
2022-12-14T00:11:25.582Z,92.42
2022-12-14T00:13:53.681Z,91.23
2022-12-14T00:16:20.160Z,91.72
2022-12-14T00:18:49.335Z,91.16
2022-12-14T00:21:15.746Z,90.89
2022-12-14T00:23:44.776Z,91.09
2022-12-14T00:26:12.814Z,91.87
2022-12-14T00:28:39.535Z,91.23
2022-12-14T00:31:06.316Z,90.36
2022-12-14T00:33:33.033Z,90.47
2022-12-14T00:35:59.638Z,91.22
2022-12-14T00:38:26.498Z,90.35
2022-12-14T00:40:53.601Z,91.46
2022-12-14T00:43:20.040Z,91.54
2022-12-14T00:45:46.630Z,91.06
2022-12-14T00:48:13.720Z,92.40
2022-12-14T00:50:40.542Z,93.99
2022-12-14T00:53:09.727Z,94.47
2022-12-14T00:55:39.722Z,93.27
2022-12-14T00:58:06.638Z,92.99
2022-12-14T01:00:33.524Z,94.47
2022-12-14T01:02:59.929Z,92.19
2022-12-14T01:05:26.311Z,93.11
2022-12-14T01:07:52.708Z,93.43
2022-12-14T01:10:19.027Z,91.27
2022-12-14T01:12:45.581Z,90.01
2022-12-14T01:15:11.957Z,89.20
2022-12-14T01:17:38.351Z,89.15
2022-12-14T01:20:05.047Z,89.12
2022-12-14T01:22:31.410Z,88.86
2022-12-14T01:24:57.808Z,90.78
2022-12-14T01:27:24.174Z,90.90
2022-12-14T01:29:50.564Z,89.39
2022-12-14T01:32:17.065Z,90.28
2022-12-14T01:34:43.379Z,90.43
2022-12-14T01:37:09.741Z,90.08
2022-12-14T01:39:36.128Z,90.94
2022-12-14T01:42:02.609Z,90.63
2022-12-14T01:44:28.929Z,90.38
2022-12-14T01:46:58.003Z,89.47
2022-12-14T01:49:24.572Z,88.86
2022-12-14T01:51:58.365Z,89.63
2022-12-14T01:54:26.699Z,89.63
2022-12-14T01:56:53.685Z,90.63
2022-12-14T01:59:24.388Z,91.90
2022-12-14T02:01:51.224Z,90.55
2022-12-14T02:04:18.520Z,91.36
2022-12-14T02:06:47.613Z,90.97
2022-12-14T02:09:16.690Z,89.99
2022-12-14T02:11:48.932Z,89.39
2022-12-14T02:14:15.419Z,90.71
2022-12-14T02:16:41.835Z,88.23
2022-12-14T02:19:08.197Z,88.27
2022-12-14T02:21:56.159Z,89.90
2022-12-14T02:24:31.621Z,91.46
2022-12-14T02:27:02.588Z,88.99
2022-12-14T02:29:41.304Z,88.24
2022-12-14T02:32:10.454Z,89.92
2022-12-14T02:34:55.379Z,91.16
2022-12-14T02:37:28.424Z,90.29
2022-12-14T02:40:10.170Z,89.90
2022-12-14T02:42:54.711Z,90.97
2022-12-14T02:45:24.142Z,91.45
2022-12-14T02:47:54.586Z,90.74
2022-12-14T02:50:29.582Z,91.97
2022-12-14T02:52:55.905Z,91.36
2022-12-14T02:55:27.487Z,91.88
2022-12-14T02:57:53.841Z,92.77
2022-12-14T03:00:20.303Z,91.52
2022-12-14T03:02:48.096Z,92.57
2022-12-14T03:05:14.571Z,92.42
2022-12-14T03:07:40.993Z,92.89
2022-12-14T03:10:16.714Z,93.60
2022-12-14T03:12:45.018Z,93.26
2022-12-14T03:15:12.546Z,92.22
2022-12-14T03:17:40.234Z,92.41
2022-12-14T03:20:10.115Z,91.24
2022-12-14T03:22:44.664Z,92.71
2022-12-14T03:25:20.684Z,91.90
2022-12-14T03:27:54.810Z,93.88
2022-12-14T03:30:44.370Z,92.20
2022-12-14T03:33:11.663Z,90.65
2022-12-14T03:35:39.773Z,92.03
2022-12-14T03:38:29.225Z,90.35
2022-12-14T03:41:02.711Z,90.41
2022-12-14T03:43:38.042Z,92.63
2022-12-14T03:46:15.641Z,94.44
2022-12-14T03:48:48.531Z,93.43
2022-12-14T03:51:22.911Z,92.15
2022-12-14T03:54:01.577Z,92.59
2022-12-14T03:56:51.257Z,91.80
2022-12-14T03:59:39.589Z,91.66
2022-12-14T04:02:06.063Z,90.76
2022-12-14T04:04:32.489Z,91.57
2022-12-14T04:07:14.229Z,90.22
2022-12-14T04:10:29.872Z,91.52
2022-12-14T04:13:17.840Z,91.37
2022-12-14T04:16:03.417Z,91.69
2022-12-14T04:18:59.220Z,91.57
2022-12-14T04:21:32.520Z,89.56
2022-12-14T04:24:38.808Z,90.89
2022-12-14T04:27:09.925Z,91.77
2022-12-14T04:29:57.741Z,91.43
2022-12-14T04:32:30.356Z,88.89
2022-12-14T04:35:00.950Z,92.03
2022-12-14T04:37:28.666Z,91.46
2022-12-14T04:39:57.824Z,92.68
2022-12-14T04:42:28.920Z,91.23
2022-12-14T04:44:58.830Z,91.55
2022-12-14T04:47:28.757Z,91.96
2022-12-14T04:50:03.626Z,93.45
2022-12-14T04:52:29.947Z,92.23
2022-12-14T04:54:56.305Z,94.26
2022-12-14T04:57:36.382Z,93.71
2022-12-14T05:00:03.961Z,93.94
2022-12-14T05:02:53.641Z,95.22
2022-12-14T05:05:31.888Z,93.95
2022-12-14T05:08:01.205Z,93.58
2022-12-14T05:10:41.212Z,95.18
2022-12-14T05:13:30.901Z,96.01
2022-12-14T05:15:58.698Z,93.82
2022-12-14T05:18:25.714Z,94.45
2022-12-14T05:20:52.134Z,94.48
2022-12-14T05:23:24.919Z,94.92
2022-12-14T05:25:51.489Z,93.61
2022-12-14T05:28:17.838Z,95.42
2022-12-14T05:30:48.883Z,93.33
2022-12-14T05:33:19.817Z,94.66
2022-12-14T05:35:51.626Z,94.26
2022-12-14T05:38:18.030Z,94.43
2022-12-14T05:40:44.383Z,91.44
2022-12-14T05:43:12.306Z,91.78
2022-12-14T05:45:38.717Z,92.33
2022-12-14T05:48:05.336Z,91.93
2022-12-14T05:50:31.708Z,93.79
2022-12-14T05:52:58.045Z,94.19
2022-12-14T05:55:24.429Z,93.82
2022-12-14T05:57:50.895Z,93.92
2022-12-14T06:00:18.415Z,93.57
2022-12-14T06:02:45.023Z,93.28
2022-12-14T06:05:11.413Z,94.20
2022-12-14T06:07:37.867Z,93.28
2022-12-14T06:10:04.652Z,94.27
2022-12-14T06:12:31.077Z,93.93
2022-12-14T06:14:57.405Z,93.93
2022-12-14T06:17:23.732Z,93.91
2022-12-14T06:19:51.653Z,93.70
2022-12-14T06:22:18.582Z,94.93
2022-12-14T06:24:47.010Z,94.91
2022-12-14T06:27:13.338Z,92.91
2022-12-14T06:29:39.661Z,94.77
2022-12-14T06:32:06.671Z,95.81
2022-12-14T06:34:38.507Z,94.72
2022-12-14T06:37:06.314Z,93.88
2022-12-14T06:39:32.940Z,92.36
2022-12-14T06:41:59.306Z,91.68
2022-12-14T06:44:27.733Z,92.05
2022-12-14T06:46:54.130Z,94.15
2022-12-14T06:49:20.504Z,95.40
2022-12-14T06:51:46.972Z,96.51
2022-12-14T06:54:14.345Z,94.90
2022-12-14T06:56:40.898Z,91.82
2022-12-14T06:59:08.696Z,93.26
2022-12-14T07:01:35.757Z,94.55
2022-12-14T07:04:02.280Z,94.61
2022-12-14T07:06:31.941Z,94.08
2022-12-14T07:08:59.171Z,94.81
2022-12-14T07:11:26.184Z,95.42
2022-12-14T07:13:54.957Z,95.06
2022-12-14T07:16:26.334Z,95.80
2022-12-14T07:18:53.997Z,93.47
2022-12-14T07:21:21.035Z,94.97
2022-12-14T07:23:49.108Z,95.52
2022-12-14T07:26:17.652Z,95.92
2022-12-14T07:28:44.375Z,95.69
2022-12-14T07:31:14.012Z,95.23
2022-12-14T07:33:40.764Z,95.89
2022-12-14T07:36:08.409Z,95.34
2022-12-14T07:38:35.987Z,96.39
2022-12-14T07:41:06.061Z,95.90
2022-12-14T07:43:32.639Z,94.29
2022-12-14T07:46:01.182Z,94.03
2022-12-14T07:48:28.863Z,92.09
2022-12-14T07:50:55.454Z,93.22
2022-12-14T07:53:21.774Z,93.13
2022-12-14T07:55:49.104Z,93.38
2022-12-14T07:58:17.579Z,94.05
2022-12-14T08:00:45.000Z,94.26
2022-12-14T08:03:11.693Z,95.26
2022-12-14T08:05:38.684Z,93.21
2022-12-14T08:08:06.048Z,93.07
2022-12-14T08:10:40.528Z,92.41
2022-12-14T08:13:07.093Z,92.36
2022-12-14T08:15:36.713Z,89.26
2022-12-14T08:18:03.281Z,89.31
2022-12-14T08:20:30.793Z,90.19
2022-12-14T08:22:57.198Z,89.34
2022-12-14T08:25:23.664Z,90.16
2022-12-14T08:27:50.051Z,90.84
2022-12-14T08:30:16.566Z,90.21
2022-12-14T08:32:42.961Z,88.92
2022-12-14T08:35:09.471Z,88.76
2022-12-14T08:37:35.829Z,92.93
2022-12-14T08:40:03.893Z,92.81
2022-12-14T08:42:36.058Z,93.38
2022-12-14T08:45:02.769Z,91.98
2022-12-14T08:47:29.158Z,90.67
2022-12-14T08:49:55.630Z,92.69
2022-12-14T08:52:22.380Z,90.96
2022-12-14T08:54:48.748Z,89.45
2022-12-14T08:57:15.107Z,90.43
2022-12-14T09:02:28.162Z,89.57
2022-12-14T09:04:54.769Z,89.32
2022-12-14T09:07:21.175Z,90.06
2022-12-14T09:09:49.672Z,86.70
2022-12-14T09:12:16.180Z,89.22
2022-12-14T09:14:46.544Z,88.09
2022-12-14T09:17:16.414Z,87.60
2022-12-14T09:19:49.947Z,89.39
2022-12-14T09:22:16.374Z,88.37
2022-12-14T09:24:42.784Z,89.04
2022-12-14T09:27:09.232Z,87.85
2022-12-14T09:29:36.124Z,88.58
2022-12-14T09:32:02.497Z,87.13
2022-12-14T09:34:35.836Z,87.80
2022-12-14T09:37:07.395Z,86.11
2022-12-14T09:39:34.226Z,86.64
2022-12-14T09:42:17.853Z,84.94
2022-12-14T09:44:54.388Z,86.11
2022-12-14T09:47:25.085Z,87.95
2022-12-14T09:49:54.290Z,86.90
2022-12-14T09:52:23.108Z,82.78
2022-12-14T09:54:50.394Z,84.20
2022-12-14T09:57:33.280Z,85.49
2022-12-14T09:59:59.656Z,82.82
2022-12-14T10:02:47.850Z,81.46
2022-12-14T10:05:17.380Z,83.36
2022-12-14T10:07:47.418Z,83.17
2022-12-14T10:10:16.595Z,83.75
2022-12-14T10:12:59.205Z,86.10
2022-12-14T10:15:40.181Z,84.52
2022-12-14T10:18:57.586Z,86.59
2022-12-14T10:21:16.015Z,85.16
2022-12-14T10:23:48.608Z,84.51
2022-12-14T10:26:18.630Z,86.99
2022-12-14T10:29:00.992Z,86.98
2022-12-14T10:31:30.914Z,81.80
2022-12-14T10:34:05.365Z,84.96
2022-12-14T10:36:39.146Z,89.18
2022-12-14T10:39:20.888Z,87.98
2022-12-14T10:41:54.667Z,88.84
2022-12-14T10:44:20.972Z,91.13
2022-12-14T10:47:10.417Z,90.88
2022-12-14T10:49:41.685Z,89.34
2022-12-14T10:52:14.730Z,92.16
2022-12-14T10:54:49.317Z,96.92
2022-12-14T10:57:20.100Z,98.54
2022-12-14T11:00:03.567Z,99.72
2022-12-14T11:02:39.412Z,97.85
2022-12-14T11:05:18.813Z,98.53
2022-12-14T11:07:49.805Z,98.41
2022-12-14T11:10:25.211Z,98.20
2022-12-14T11:12:55.055Z,98.71
2022-12-14T11:15:30.274Z,97.38
2022-12-14T11:18:16.398Z,98.04
2022-12-14T11:20:54.086Z,98.21
2022-12-14T11:23:39.057Z,94.60
2022-12-14T11:26:20.831Z,94.99
2022-12-14T11:28:52.384Z,94.95
2022-12-14T11:31:34.006Z,96.07
2022-12-14T11:34:01.541Z,94.58
2022-12-14T11:36:41.124Z,95.73
2022-12-14T11:39:14.736Z,94.84
2022-12-14T11:41:48.037Z,94.73
2022-12-14T11:44:14.516Z,95.37
2022-12-14T11:46:47.088Z,94.63
2022-12-14T11:49:25.650Z,94.44
2022-12-14T11:52:04.112Z,92.04
2022-12-14T11:54:33.920Z,93.46
2022-12-14T11:57:10.154Z,94.19
2022-12-14T11:59:38.479Z,98.16
2022-12-14T12:02:15.360Z,95.06
2022-12-14T12:04:46.636Z,96.70
2022-12-14T12:07:21.446Z,98.90
2022-12-14T12:09:50.002Z,99.00
2022-12-14T12:12:20.341Z,100.00
2022-12-14T12:14:47.864Z,100.00
2022-12-14T12:17:26.013Z,99.09
2022-12-14T12:19:52.497Z,98.83
2022-12-14T12:22:20.400Z,97.10
2022-12-14T12:25:24.306Z,96.85
2022-12-14T12:27:43.963Z,95.66
2022-12-14T12:30:21.993Z,95.93
2022-12-14T12:32:51.275Z,96.15
2022-12-14T12:35:20.347Z,94.81
2022-12-14T12:37:46.660Z,97.47
2022-12-14T12:40:16.457Z,95.26
2022-12-14T12:42:53.076Z,95.79
2022-12-14T12:45:28.849Z,94.98
2022-12-14T12:48:12.653Z,96.47
2022-12-14T12:50:59.295Z,96.78
2022-12-14T12:53:30.293Z,97.55
2022-12-14T12:56:14.794Z,99.04
2022-12-14T12:58:49.056Z,97.28
2022-12-14T13:01:19.082Z,97.64
2022-12-14T13:03:47.934Z,96.30
2022-12-14T13:06:32.943Z,94.97
2022-12-14T13:09:11.773Z,97.43
2022-12-14T13:11:39.681Z,96.34
2022-12-14T13:14:26.356Z,98.38
2022-12-14T13:16:54.085Z,98.56
2022-12-14T13:19:49.751Z,99.04
2022-12-14T13:22:15.007Z,99.57
2022-12-14T13:24:42.876Z,99.84
2022-12-14T13:27:27.782Z,98.12
2022-12-14T13:30:06.073Z,96.70
2022-12-14T13:32:37.166Z,97.92
2022-12-14T13:35:08.203Z,97.10
2022-12-14T13:37:53.730Z,100.00
2022-12-14T13:40:23.136Z,100.00
2022-12-14T13:43:03.239Z,98.31
2022-12-14T13:45:32.198Z,99.96
2022-12-14T13:47:58.905Z,100.00
2022-12-14T13:50:37.156Z,100.00
2022-12-14T13:53:06.687Z,100.00
2022-12-14T13:55:35.115Z,100.00
2022-12-14T13:58:10.227Z,100.00
2022-12-14T14:00:48.414Z,100.00
2022-12-14T14:03:33.862Z,100.00
2022-12-14T14:06:01.557Z,99.58
2022-12-14T14:08:41.667Z,100.00
2022-12-14T14:11:39.717Z,100.00
2022-12-14T14:14:12.689Z,100.00
2022-12-14T14:16:44.964Z,99.83
2022-12-14T14:19:11.347Z,100.00
2022-12-14T14:22:14.317Z,100.00
2022-12-14T14:24:51.121Z,100.00
2022-12-14T14:27:22.407Z,100.00
2022-12-14T14:29:49.933Z,100.00
2022-12-14T14:32:34.786Z,100.00
2022-12-14T14:35:03.088Z,100.00
2022-12-14T14:37:34.430Z,100.00
2022-12-14T14:42:45.585Z,100.00
2022-12-14T14:45:26.270Z,100.00
2022-12-14T14:48:15.325Z,100.00
2022-12-14T14:50:42.746Z,100.00
2022-12-14T14:53:18.380Z,100.00
2022-12-14T14:55:58.551Z,100.00
2022-12-14T14:58:27.555Z,100.00
2022-12-14T15:00:54.978Z,100.00
2022-12-14T15:03:25.721Z,100.00
2022-12-14T15:05:52.257Z,100.00
2022-12-14T15:08:32.559Z,100.00
2022-12-14T15:11:02.583Z,100.00
2022-12-14T15:13:32.583Z,100.00
2022-12-14T15:15:59.462Z,100.00
2022-12-14T15:18:25.886Z,100.00
2022-12-14T15:20:59.128Z,100.00
2022-12-14T15:23:27.694Z,100.00
2022-12-14T15:25:58.650Z,100.00
2022-12-14T15:28:26.329Z,100.00
2022-12-14T15:30:54.975Z,100.00
2022-12-14T15:33:28.919Z,100.00
2022-12-14T15:36:02.063Z,100.00
2022-12-14T15:38:31.757Z,100.00
2022-12-14T15:40:59.442Z,100.00
2022-12-14T15:43:26.737Z,100.00
2022-12-14T15:45:56.013Z,100.00
2022-12-14T15:48:24.592Z,100.00
2022-12-14T15:50:54.325Z,100.00
2022-12-14T15:53:40.963Z,100.00
2022-12-14T15:56:26.087Z,100.00
2022-12-14T15:58:54.140Z,100.00
2022-12-14T16:01:20.749Z,100.00
2022-12-14T16:03:49.241Z,100.00
2022-12-14T16:06:17.952Z,100.00
2022-12-14T16:08:53.208Z,100.00
2022-12-14T16:11:22.879Z,100.00
2022-12-14T16:13:51.062Z,100.00
2022-12-14T16:16:17.577Z,100.00
2022-12-14T16:18:50.973Z,100.00
2022-12-14T16:21:29.356Z,100.00
2022-12-14T16:23:57.650Z,100.00
2022-12-14T16:26:25.740Z,100.00
2022-12-14T16:29:10.706Z,100.00
2022-12-14T16:31:37.405Z,100.00
2022-12-14T16:34:08.694Z,100.00
2022-12-14T16:36:36.758Z,100.00
2022-12-14T16:39:05.342Z,100.00
2022-12-14T16:41:36.312Z,100.00
2022-12-14T16:44:04.678Z,100.00
2022-12-14T16:46:31.749Z,100.00
2022-12-14T16:49:19.357Z,100.00
2022-12-14T16:52:06.407Z,100.00
2022-12-14T16:54:33.729Z,100.00
2022-12-14T16:57:01.667Z,100.00
2022-12-14T16:59:30.329Z,100.00
2022-12-14T17:01:56.910Z,100.00
2022-12-14T17:04:23.507Z,100.00
2022-12-14T17:06:54.171Z,100.00
2022-12-14T17:09:22.100Z,100.00
2022-12-14T17:11:49.169Z,100.00
2022-12-14T17:14:16.385Z,100.00
2022-12-14T17:16:43.061Z,100.00
2022-12-14T17:19:15.005Z,100.00
2022-12-14T17:21:42.643Z,100.00
2022-12-14T17:24:13.880Z,100.00
2022-12-14T17:26:40.209Z,100.00
2022-12-14T17:29:06.845Z,100.00
2022-12-14T17:31:33.349Z,100.00
2022-12-14T17:33:59.711Z,100.00
2022-12-14T17:36:26.045Z,100.00
2022-12-14T17:39:11.408Z,100.00
2022-12-14T17:41:39.769Z,100.00
2022-12-14T17:44:06.246Z,100.00
2022-12-14T17:46:32.728Z,100.00
2022-12-14T17:49:04.500Z,100.00
2022-12-14T17:51:39.933Z,100.00
2022-12-14T17:54:06.617Z,100.00
2022-12-14T17:56:32.998Z,100.00
2022-12-14T17:58:59.342Z,100.00
2022-12-14T18:01:25.895Z,100.00
2022-12-14T18:03:52.433Z,100.00
2022-12-14T18:06:18.807Z,100.00
2022-12-14T18:08:45.679Z,100.00
2022-12-14T18:11:22.687Z,100.00
2022-12-14T18:13:49.165Z,100.00
2022-12-14T18:16:17.132Z,100.00
2022-12-14T18:18:45.993Z,100.00
2022-12-14T18:21:19.189Z,100.00
2022-12-14T18:23:47.124Z,100.00
2022-12-14T18:26:20.651Z,100.00
2022-12-14T18:28:48.452Z,100.00
2022-12-14T18:31:21.205Z,100.00
2022-12-14T18:33:47.648Z,100.00
2022-12-14T18:36:14.985Z,100.00
2022-12-14T18:38:41.772Z,100.00
2022-12-14T18:41:08.215Z,100.00
2022-12-14T18:43:43.590Z,100.00
2022-12-14T18:46:10.944Z,100.00
2022-12-14T18:48:40.905Z,100.00
2022-12-14T18:51:07.992Z,100.00
2022-12-14T18:53:34.752Z,100.00
2022-12-14T18:56:03.804Z,100.00
2022-12-14T18:58:30.212Z,100.00
2022-12-14T19:00:58.128Z,100.00
2022-12-14T19:03:25.440Z,100.00
2022-12-14T19:05:51.936Z,100.00
2022-12-14T19:08:20.307Z,100.00
2022-12-14T19:10:47.986Z,100.00
2022-12-14T19:13:20.336Z,100.00
2022-12-14T19:15:51.405Z,100.00
2022-12-14T19:18:19.907Z,100.00
2022-12-14T19:20:46.370Z,100.00
2022-12-14T19:23:18.199Z,100.00
2022-12-14T19:25:45.033Z,100.00
2022-12-14T19:28:30.867Z,100.00
2022-12-14T19:31:00.590Z,100.00
2022-12-14T19:33:27.707Z,100.00
2022-12-14T19:35:54.428Z,100.00
2022-12-14T19:38:20.829Z,100.00
2022-12-14T19:41:01.849Z,100.00
2022-12-14T19:43:28.890Z,100.00
2022-12-14T19:45:55.821Z,100.00
2022-12-14T19:48:22.286Z,100.00
2022-12-14T19:50:57.690Z,100.00
2022-12-14T19:53:24.325Z,100.00
2022-12-14T19:55:55.856Z,100.00
2022-12-14T19:58:24.880Z,100.00
2022-12-14T20:00:51.898Z,100.00
2022-12-14T20:03:18.404Z,100.00
2022-12-14T20:05:51.440Z,100.00
2022-12-14T20:08:18.083Z,100.00
2022-12-14T20:10:44.439Z,100.00
2022-12-14T20:13:10.976Z,100.00
2022-12-14T20:15:37.873Z,100.00
2022-12-14T20:18:04.765Z,100.00
2022-12-14T20:20:34.353Z,100.00
2022-12-14T20:23:00.862Z,100.00
2022-12-14T20:25:27.323Z,100.00
2022-12-14T20:27:54.061Z,100.00
2022-12-14T20:30:20.545Z,100.00
2022-12-14T20:32:49.463Z,100.00
2022-12-14T20:35:18.617Z,100.00
2022-12-14T20:37:45.589Z,100.00
2022-12-14T20:40:12.334Z,100.00
2022-12-14T20:42:38.787Z,100.00
2022-12-14T20:45:07.419Z,100.00
2022-12-14T20:47:34.316Z,100.00
2022-12-14T20:50:00.785Z,100.00
2022-12-14T20:52:28.308Z,100.00
2022-12-14T20:54:54.749Z,100.00
2022-12-14T20:57:21.097Z,100.00
2022-12-14T20:59:49.647Z,100.00
2022-12-14T21:02:16.636Z,100.00
2022-12-14T21:04:43.127Z,100.00
2022-12-14T21:07:09.569Z,100.00
2022-12-14T21:09:36.055Z,100.00
2022-12-14T21:12:20.880Z,100.00
2022-12-14T21:14:48.225Z,100.00
2022-12-14T21:17:14.737Z,100.00
2022-12-14T21:19:41.627Z,100.00
2022-12-14T21:22:09.988Z,100.00
2022-12-14T21:25:01.716Z,100.00
2022-12-14T21:27:24.715Z,100.00
2022-12-14T21:29:53.656Z,100.00
2022-12-14T21:32:22.085Z,100.00
2022-12-14T21:34:48.729Z,100.00
2022-12-14T21:37:15.478Z,100.00
2022-12-14T21:39:41.888Z,100.00
2022-12-14T21:42:10.485Z,100.00
2022-12-14T21:44:37.501Z,100.00
2022-12-14T21:47:05.327Z,100.00
2022-12-14T21:49:31.660Z,100.00
2022-12-14T21:51:58.488Z,100.00
2022-12-14T21:54:25.434Z,100.00
2022-12-14T21:57:10.381Z,100.00
2022-12-14T21:59:41.691Z,100.00
2022-12-14T22:02:13.007Z,100.00
2022-12-14T22:04:40.105Z,100.00
2022-12-14T22:07:06.820Z,100.00
2022-12-14T22:09:38.330Z,100.00
2022-12-14T22:12:04.903Z,100.00
2022-12-14T22:14:37.919Z,100.00
2022-12-14T22:17:06.676Z,100.00
2022-12-14T22:19:39.923Z,100.00
2022-12-14T22:22:06.618Z,100.00
2022-12-14T22:24:33.200Z,100.00
2022-12-14T22:26:59.646Z,100.00
2022-12-14T22:29:26.151Z,100.00
2022-12-14T22:31:54.664Z,100.00
2022-12-14T22:34:22.956Z,100.00
2022-12-14T22:36:50.477Z,100.00
2022-12-14T22:39:17.979Z,100.00
2022-12-14T22:41:44.551Z,100.00
2022-12-14T22:44:12.697Z,100.00
2022-12-14T22:46:39.462Z,100.00
2022-12-14T22:49:06.088Z,100.00
2022-12-14T22:51:32.493Z,100.00
2022-12-14T22:53:58.922Z,100.00
2022-12-14T22:56:34.451Z,100.00
2022-12-14T22:59:05.049Z,100.00
2022-12-14T23:01:33.081Z,100.00
2022-12-14T23:03:59.878Z,100.00
2022-12-14T23:06:26.423Z,100.00
2022-12-14T23:09:11.446Z,100.00
2022-12-14T23:11:56.453Z,100.00
2022-12-14T23:14:41.361Z,100.00
2022-12-14T23:17:36.344Z,100.00
2022-12-14T23:20:21.939Z,100.00
2022-12-14T23:23:06.716Z,100.00
2022-12-14T23:25:52.388Z,100.00
2022-12-14T23:28:37.159Z,100.00
2022-12-14T23:31:22.374Z,100.00
2022-12-14T23:34:07.337Z,100.00
2022-12-14T23:36:52.234Z,100.00
2022-12-14T23:39:37.284Z,100.00
2022-12-14T23:42:22.785Z,100.00
2022-12-14T23:45:07.651Z,100.00
2022-12-14T23:47:52.427Z,100.00
2022-12-14T23:50:37.547Z,100.00
2022-12-14T23:53:26.213Z,100.00
2022-12-14T23:56:11.150Z,100.00
2022-12-14T23:58:55.989Z,100.00
